Time;durP1;ratioP1;P1;durP2;ratioP2;P2;SDS_P1;SDS_P2;PMS_P1;PMS_P2;Temp;Humidity;BMP_temperature;BMP_pressure;BME280_temperature;BME280_humidity;BME280_pressure;Samples;Min_cycle;Max_cycle;Signal;HPM_P1;HPM_P2
2023/09/05 00:02:38;;;;;;;2.72;1.35;;;21.40;62.10;;;;;;2267091;59;21122;-65
2023/09/05 00:05:11;;;;;;;2.85;1.40;;;21.40;62.40;;;;;;2270543;55;20983;-67
2023/09/05 00:07:38;;;;;;;4.05;1.45;;;21.40;62.80;;;;;;2508293;55;20932;-68
2023/09/05 00:10:10;;;;;;;2.85;1.60;;;21.40;62.80;;;;;;2276510;55;21452;-66
2023/09/05 00:12:40;;;;;;;2.90;1.40;;;21.30;62.60;;;;;;2280122;55;21006;-67
2023/09/05 00:15:11;;;;;;;2.70;1.33;;;21.30;62.80;;;;;;2512984;55;21023;-67
2023/09/05 00:17:39;;;;;;;3.47;1.55;;;21.30;62.70;;;;;;2512814;55;21008;-66
2023/09/05 00:20:06;;;;;;;3.47;1.42;;;21.20;62.70;;;;;;2512636;55;21000;-66
2023/09/05 00:22:33;;;;;;;3.17;1.60;;;21.20;62.80;;;;;;2280062;55;20955;-67
2023/09/05 00:24:59;;;;;;;3.78;1.37;;;21.20;62.90;;;;;;2513136;55;21549;-66
2023/09/05 00:27:26;;;;;;;3.03;1.40;;;21.20;62.80;;;;;;2280903;55;21038;-67
2023/09/05 00:29:53;;;;;;;2.70;1.45;;;21.20;62.80;;;;;;2512131;55;20998;-66
2023/09/05 00:32:19;;;;;;;2.80;1.40;;;21.10;62.70;;;;;;2280850;55;21024;-68
2023/09/05 00:34:47;;;;;;;2.55;1.35;;;21.20;62.80;;;;;;2279889;55;20972;-67
2023/09/05 00:37:21;;;;;;;4.18;1.50;;;21.10;62.70;;;;;;2280048;55;20986;-70
2023/09/05 00:39:47;;;;;;;2.85;1.40;;;21.10;62.80;;;;;;2512954;55;20947;-67
2023/09/05 00:42:15;;;;;;;3.08;1.50;;;21.10;62.80;;;;;;2514217;55;21559;-67
2023/09/05 00:44:44;;;;;;;2.92;1.58;;;21.10;62.80;;;;;;2280760;55;20987;-69
2023/09/05 00:47:13;;;;;;;2.87;1.60;;;21.10;62.80;;;;;;2513730;55;20970;-67
2023/09/05 00:49:47;;;;;;;2.95;1.55;;;21.10;62.60;;;;;;2514076;55;21293;-67
2023/09/05 00:52:13;;;;;;;2.75;1.27;;;21.10;62.70;;;;;;2513414;55;20975;-67
2023/09/05 00:54:40;;;;;;;2.85;1.37;;;21.00;62.60;;;;;;2505984;55;20964;-67
2023/09/05 00:57:08;;;;;;;2.83;1.33;;;21.10;62.80;;;;;;2279269;55;21142;-68
2023/09/05 00:59:34;;;;;;;3.05;1.42;;;21.00;62.60;;;;;;2280999;55;21039;-68
2023/09/05 01:02:00;;;;;;;2.45;1.08;;;21.00;62.60;;;;;;2513625;55;21043;-67
2023/09/05 01:04:27;;;;;;;3.00;1.35;;;21.00;62.60;;;;;;2512798;55;21023;-68
2023/09/05 01:10:29;;;;;;;2.75;1.40;;;21.00;62.60;;;;;;2513181;55;20971;-67
2023/09/05 01:13:00;;;;;;;1.85;0.80;;;20.90;61.80;;;;;;2513141;55;20959;-66
2023/09/05 01:15:27;;;;;;;2.28;1.15;;;20.90;62.40;;;;;;2513930;55;20963;-66
2023/09/05 01:17:54;;;;;;;2.80;1.20;;;20.90;62.50;;;;;;2283255;55;20979;-67
2023/09/05 01:20:28;;;;;;;3.05;1.35;;;20.80;62.40;;;;;;2505561;55;20963;-66
2023/09/05 01:23:00;;;;;;;;;;;20.80;62.40;;;;;;2283890;55;20999;-70
2023/09/05 01:25:27;;;;;;;3.47;1.08;;;20.80;61.70;;;;;;2513232;55;20141;-69
2023/09/05 01:27:54;;;;;;;2.42;1.10;;;20.70;62.40;;;;;;2513219;55;21098;-67
2023/09/05 01:30:20;;;;;;;2.83;0.93;;;20.70;62.40;;;;;;2513809;55;20970;-67
2023/09/05 01:32:47;;;;;;;2.70;1.33;;;20.70;63.20;;;;;;2280458;55;21406;-66
2023/09/05 01:35:19;;;;;;;2.65;1.30;;;20.60;62.40;;;;;;2512974;55;21077;-67
2023/09/05 01:37:47;;;;;;;2.80;1.33;;;20.60;62.20;;;;;;2513213;55;21007;-69
2023/09/05 01:40:14;;;;;;;3.33;1.30;;;20.60;62.50;;;;;;2280544;55;20967;-68
2023/09/05 01:42:41;;;;;;;3.17;1.40;;;20.50;62.40;;;;;;2280427;55;20971;-68
2023/09/05 01:45:08;;;;;;;2.35;1.17;;;20.50;62.50;;;;;;2513168;55;21973;-68
2023/09/05 01:47:36;;;;;;;2.90;1.40;;;20.40;62.50;;;;;;2281453;55;20979;-69
2023/09/05 01:50:02;;;;;;;4.32;1.70;;;20.40;62.50;;;;;;2512487;55;21023;-68
2023/09/05 01:52:31;;;;;;;2.90;1.40;;;20.40;62.60;;;;;;2280369;55;20939;-68
2023/09/05 01:54:58;;;;;;;3.80;1.35;;;20.40;62.50;;;;;;2280419;55;21589;-69
2023/09/05 01:57:26;;;;;;;2.03;1.00;;;20.30;62.50;;;;;;2280344;55;20975;-69
2023/09/05 01:59:52;;;;;;;2.45;1.10;;;20.30;62.50;;;;;;2513302;55;21031;-68
2023/09/05 02:02:19;;;;;;;3.78;1.30;;;20.30;62.60;;;;;;2513530;55;21019;-69
2023/09/05 02:04:45;;;;;;;3.00;1.10;;;20.20;62.50;;;;;;2280742;55;21793;-67
2023/09/05 02:07:12;;;;;;;2.65;1.17;;;20.20;62.60;;;;;;2280169;55;21511;-65
2023/09/05 02:09:38;;;;;;;3.60;1.52;;;20.20;62.60;;;;;;2512151;55;20935;-65
2023/09/05 02:12:05;;;;;;;2.83;1.20;;;20.20;62.60;;;;;;2280228;55;21552;-66
2023/09/05 02:14:32;;;;;;;2.58;1.20;;;20.10;62.60;;;;;;2511288;55;20967;-66
2023/09/05 02:17:05;;;;;;;2.90;1.20;;;20.10;62.60;;;;;;2513245;54;20963;-70
2023/09/05 02:19:34;;;;;;;2.97;1.15;;;20.10;62.40;;;;;;2512280;55;21680;-65
2023/09/05 02:22:00;;;;;;;2.90;1.33;;;20.10;62.60;;;;;;2513073;55;21034;-66
2023/09/05 02:24:28;;;;;;;2.25;1.10;;;20.10;62.60;;;;;;2511540;55;20983;-67
2023/09/05 02:26:56;;;;;;;2.92;1.05;;;20.00;62.50;;;;;;2279487;55;20955;-69
2023/09/05 02:29:25;;;;;;;2.35;1.20;;;20.10;62.60;;;;;;2511870;55;20971;-66
2023/09/05 02:31:54;;;;;;;;;;;20.00;62.50;;;;;;2516384;55;20964;-66
2023/09/05 02:34:20;;;;;;;2.75;1.20;;;20.00;61.80;;;;;;2512978;55;20567;-68
2023/09/05 02:36:57;;;;;;;2.47;1.20;;;20.00;62.50;;;;;;2513581;55;21452;-69
2023/09/05 02:39:23;;;;;;;2.92;1.30;;;20.00;62.30;;;;;;2513162;55;21819;-66
2023/09/05 02:41:50;;;;;;;2.85;1.40;;;20.00;62.80;;;;;;2512887;55;20968;-69
2023/09/05 02:44:16;;;;;;;2.70;1.23;;;19.90;62.70;;;;;;2280170;55;20971;-67
2023/09/05 02:46:43;;;;;;;3.33;1.50;;;19.90;62.90;;;;;;2513379;55;20941;-65
2023/09/05 02:49:10;;;;;;;2.50;1.23;;;19.90;62.90;;;;;;2280113;55;21038;-66
2023/09/05 02:51:36;;;;;;;3.10;1.30;;;19.80;62.90;;;;;;2279444;55;20959;-67
2023/09/05 02:54:02;;;;;;;2.90;1.42;;;19.80;62.90;;;;;;2273433;56;20939;-70
2023/09/05 02:56:29;;;;;;;2.87;1.52;;;19.80;63.00;;;;;;2280182;55;21086;-67
2023/09/05 02:58:56;;;;;;;2.55;1.40;;;19.80;62.90;;;;;;2504799;55;20952;-67
2023/09/05 03:01:22;;;;;;;3.53;1.98;;;19.80;62.90;;;;;;2277125;55;20959;-65
2023/09/05 03:03:48;;;;;;;2.70;1.37;;;19.80;62.90;;;;;;2278017;55;21111;-67
2023/09/05 03:06:16;;;;;;;2.90;1.50;;;19.80;62.90;;;;;;2505222;54;20985;-66
2023/09/05 03:08:44;;;;;;;3.00;1.60;;;19.70;62.80;;;;;;2513299;55;20948;-67
2023/09/05 03:11:13;;;;;;;2.53;1.27;;;19.70;62.70;;;;;;2280317;55;20983;-69
2023/09/05 03:13:39;;;;;;;2.90;1.50;;;19.60;62.70;;;;;;2280519;55;21055;-65
2023/09/05 03:16:08;;;;;;;2.75;1.30;;;19.60;62.80;;;;;;2280116;55;20951;-67
2023/09/05 03:18:35;;;;;;;2.50;1.23;;;19.60;62.80;;;;;;2280872;55;20943;-66
2023/09/05 03:21:01;;;;;;;2.75;1.27;;;19.60;62.90;;;;;;2506189;55;20955;-67
2023/09/05 03:23:28;;;;;;;2.42;1.23;;;19.60;62.90;;;;;;2504358;55;21869;-69
2023/09/05 03:25:56;;;;;;;3.20;1.48;;;19.50;62.90;;;;;;2274772;55;20972;-65
2023/09/05 03:28:23;;;;;;;4.93;1.45;;;19.50;62.90;;;;;;2513040;55;20935;-67
2023/09/05 03:30:49;;;;;;;4.70;1.23;;;19.50;62.90;;;;;;2276055;55;21020;-68
2023/09/05 03:33:16;;;;;;;4.10;1.60;;;19.40;62.80;;;;;;2512794;55;20999;-66
2023/09/05 03:35:44;;;;;;;3.10;1.60;;;19.40;62.80;;;;;;2281024;55;20951;-66
2023/09/05 03:38:14;;;;;;;2.85;1.35;;;19.40;62.80;;;;;;2280768;55;21016;-67
2023/09/05 03:40:42;;;;;;;2.70;1.42;;;19.30;62.80;;;;;;2511133;55;20963;-66
2023/09/05 03:43:09;;;;;;;2.95;1.30;;;19.30;62.80;;;;;;2280246;55;20959;-68
2023/09/05 03:45:35;;;;;;;2.92;1.50;;;19.30;62.80;;;;;;2279161;55;21717;-66
2023/09/05 03:48:02;;;;;;;2.83;1.45;;;19.20;62.80;;;;;;2280474;55;20978;-66
2023/09/05 03:50:28;;;;;;;2.78;1.45;;;19.20;62.80;;;;;;2510405;55;21913;-68
2023/09/05 03:52:55;;;;;;;2.85;1.50;;;19.10;62.60;;;;;;2506429;55;20947;-66
2023/09/05 03:55:23;;;;;;;3.25;1.45;;;19.10;62.70;;;;;;2280956;55;20946;-65
2023/09/05 03:57:52;;;;;;;2.53;1.17;;;19.10;62.80;;;;;;2512772;55;20943;-69
2023/09/05 04:00:21;;;;;;;3.03;1.60;;;19.00;62.60;;;;;;2513217;55;21067;-66
2023/09/05 04:02:48;;;;;;;4.05;1.55;;;18.90;62.80;;;;;;2280453;55;20923;-66
2023/09/05 04:05:16;;;;;;;3.00;1.40;;;18.90;63.00;;;;;;2508773;55;21016;-66
2023/09/05 04:07:46;;;;;;;2.40;1.37;;;18.90;63.10;;;;;;2480434;55;21039;-68
2023/09/05 04:10:12;;;;;;;2.92;1.33;;;18.80;62.90;;;;;;2513263;54;21019;-66
2023/09/05 04:12:39;;;;;;;2.75;1.20;;;18.80;63.00;;;;;;2280084;55;20991;-65
2023/09/05 04:15:06;;;;;;;3.03;1.23;;;18.80;63.10;;;;;;2512997;55;21764;-68
2023/09/05 04:17:32;;;;;;;3.30;1.40;;;18.80;63.20;;;;;;2279805;55;20966;-67
2023/09/05 04:19:59;;;;;;;2.83;1.50;;;18.70;63.10;;;;;;2513366;55;20955;-67
2023/09/05 04:22:28;;;;;;;2.30;1.20;;;18.70;63.30;;;;;;2279598;55;20959;-67
2023/09/05 04:24:54;;;;;;;4.90;1.50;;;18.70;63.30;;;;;;2512702;55;21590;-69
2023/09/05 04:27:21;;;;;;;2.70;1.17;;;18.60;63.20;;;;;;2512669;55;21016;-69
2023/09/05 04:29:51;;;;;;;3.17;1.40;;;18.50;63.10;;;;;;2513740;55;21701;-67
2023/09/05 04:32:27;;;;;;;3.03;1.30;;;18.60;63.10;;;;;;2513089;55;20979;-66
2023/09/05 04:35:00;;;;;;;2.72;1.30;;;18.60;63.10;;;;;;2513314;55;21471;-66
2023/09/05 04:37:26;;;;;;;2.83;1.40;;;18.50;62.90;;;;;;2513060;55;20939;-69
2023/09/05 04:39:55;;;;;;;2.30;1.20;;;18.50;63.10;;;;;;2513149;55;20936;-68
2023/09/05 04:42:23;;;;;;;2.85;1.27;;;18.40;63.20;;;;;;2282049;55;21543;-71
2023/09/05 04:44:51;;;;;;;3.22;1.50;;;18.40;63.20;;;;;;2513022;55;21023;-68
2023/09/05 04:47:24;;;;;;;2.62;1.20;;;18.40;63.20;;;;;;2511551;55;21102;-70
2023/09/05 04:49:53;;;;;;;2.50;1.20;;;18.40;63.00;;;;;;2258376;56;21034;-65
2023/09/05 04:52:24;;;;;;;3.40;1.12;;;18.30;63.20;;;;;;2512422;55;21162;-66
2023/09/05 04:54:51;;;;;;;2.80;1.27;;;18.40;63.30;;;;;;2282716;55;21903;-68
2023/09/05 04:57:17;;;;;;;2.78;1.20;;;18.30;63.30;;;;;;2511395;55;21079;-68
2023/09/05 04:59:45;;;;;;;5.93;1.58;;;18.30;63.30;;;;;;2280482;55;21397;-68
2023/09/05 05:02:11;;;;;;;2.60;1.27;;;18.30;63.30;;;;;;2513232;55;20958;-67
2023/09/05 05:04:37;;;;;;;3.08;1.58;;;18.30;63.50;;;;;;2504966;55;20976;-71
2023/09/05 05:07:04;;;;;;;3.58;1.80;;;18.20;63.50;;;;;;2279776;55;20974;-69
2023/09/05 05:09:30;;;;;;;3.80;1.60;;;18.20;63.60;;;;;;2278232;55;21031;-68
2023/09/05 05:11:56;;;;;;;2.85;1.27;;;18.20;63.80;;;;;;2511436;55;20987;-66
2023/09/05 05:14:23;;;;;;;3.05;1.60;;;18.20;63.80;;;;;;2282099;55;20992;-65
2023/09/05 05:16:50;;;;;;;2.58;1.10;;;18.20;64.00;;;;;;2274823;55;21024;-66
2023/09/05 05:19:16;;;;;;;2.87;1.58;;;18.20;64.10;;;;;;2280955;55;21036;-67
2023/09/05 05:21:42;;;;;;;2.65;1.30;;;18.20;64.20;;;;;;2280553;55;20960;-66
2023/09/05 05:24:09;;;;;;;5.55;1.58;;;18.10;64.10;;;;;;2513626;55;20975;-66
2023/09/05 05:26:35;;;;;;;3.12;1.70;;;18.10;64.20;;;;;;2513124;55;21905;-66
2023/09/05 05:29:03;;;;;;;4.45;2.42;;;18.10;64.30;;;;;;2513748;55;20951;-66
2023/09/05 05:31:29;;;;;;;3.67;1.70;;;18.20;64.50;;;;;;2279425;55;21869;-66
2023/09/05 05:33:57;;;;;;;2.85;1.40;;;18.20;64.60;;;;;;2508815;54;21064;-67
2023/09/05 05:36:25;;;;;;;3.67;1.48;;;18.20;64.60;;;;;;2281343;55;20971;-66
2023/09/05 05:38:51;;;;;;;3.30;1.60;;;18.20;64.70;;;;;;2513166;55;21026;-68
2023/09/05 05:41:18;;;;;;;2.33;1.17;;;18.20;64.70;;;;;;2513046;55;20959;-67
2023/09/05 05:43:44;;;;;;;3.60;1.70;;;18.20;64.60;;;;;;2511918;55;20967;-68
2023/09/05 05:46:13;;;;;;;3.12;1.60;;;18.20;64.60;;;;;;2513110;55;20947;-68
2023/09/05 05:48:40;;;;;;;3.35;1.65;;;18.20;64.60;;;;;;2509459;55;21134;-67
2023/09/05 05:51:09;;;;;;;2.70;1.35;;;18.20;64.60;;;;;;2502933;55;20982;-67
2023/09/05 05:53:39;;;;;;;2.72;1.33;;;18.20;64.60;;;;;;2500520;55;20983;-66
2023/09/05 05:56:08;;;;;;;2.80;1.40;;;18.30;64.60;;;;;;2512919;55;20931;-67
2023/09/05 05:58:35;;;;;;;3.53;1.50;;;18.20;64.50;;;;;;2512549;55;20958;-65
2023/09/05 06:01:01;;;;;;;3.55;1.65;;;18.20;64.50;;;;;;2276129;55;20984;-65
2023/09/05 06:03:29;;;;;;;2.37;1.25;;;18.30;64.60;;;;;;2510437;55;20975;-68
2023/09/05 06:05:55;;;;;;;3.80;1.75;;;18.20;64.50;;;;;;2279653;55;21812;-66
2023/09/05 06:08:22;;;;;;;3.35;1.55;;;18.30;64.70;;;;;;2512741;54;20962;-65
2023/09/05 06:10:49;;;;;;;3.53;1.85;;;18.30;64.70;;;;;;2512043;55;21067;-66
2023/09/05 06:13:15;;;;;;;3.22;1.52;;;18.30;64.80;;;;;;2280445;55;20988;-69
2023/09/05 06:15:42;;;;;;;4.05;1.80;;;18.20;64.70;;;;;;2275327;55;21011;-68
2023/09/05 06:18:08;;;;;;;3.15;1.70;;;18.30;64.90;;;;;;2510940;55;20999;-66
2023/09/05 06:20:36;;;;;;;3.45;1.80;;;18.30;65.10;;;;;;2279141;55;22020;-65
2023/09/05 06:23:02;;;;;;;3.75;1.92;;;18.30;65.10;;;;;;2280432;55;20990;-66
2023/09/05 06:25:32;;;;;;;3.05;1.70;;;18.30;65.20;;;;;;2513452;55;20952;-66
2023/09/05 06:27:59;;;;;;;3.20;1.70;;;18.40;65.40;;;;;;2509773;55;21115;-66
2023/09/05 06:30:26;;;;;;;3.37;1.58;;;18.40;65.40;;;;;;2505092;55;21082;-65
2023/09/05 06:32:53;;;;;;;4.57;2.03;;;18.40;65.50;;;;;;2280977;55;20975;-68
2023/09/05 06:35:19;;;;;;;4.30;1.90;;;18.50;65.70;;;;;;2512818;55;20971;-68
2023/09/05 06:37:46;;;;;;;4.40;2.12;;;18.50;65.70;;;;;;2509538;55;21128;-66
2023/09/05 06:40:18;;;;;;;3.12;1.73;;;18.50;65.80;;;;;;2507029;55;21047;-69
2023/09/05 06:42:44;;;;;;;3.67;1.98;;;18.60;66.10;;;;;;2512977;55;21363;-68
2023/09/05 06:45:11;;;;;;;4.05;2.20;;;18.60;66.10;;;;;;2513371;55;21516;-65
2023/09/05 06:47:37;;;;;;;4.43;2.20;;;18.70;66.30;;;;;;2512905;55;20951;-65
2023/09/05 06:50:05;;;;;;;4.00;2.20;;;18.70;66.30;;;;;;2280861;55;21026;-66
2023/09/05 06:52:33;;;;;;;4.87;2.50;;;18.80;66.40;;;;;;2513521;55;20995;-66
2023/09/05 06:54:59;;;;;;;4.47;2.60;;;18.90;66.60;;;;;;2280056;55;20987;-66
2023/09/05 06:57:26;;;;;;;4.72;2.47;;;19.00;66.70;;;;;;2275451;55;20990;-66
2023/09/05 06:59:53;;;;;;;6.43;2.58;;;19.10;66.90;;;;;;2513087;55;21308;-68
2023/09/05 07:02:19;;;;;;;4.60;2.90;;;19.10;66.90;;;;;;2507285;55;21010;-65
2023/09/05 07:04:46;;;;;;;4.47;2.55;;;19.20;67.00;;;;;;2509320;55;21023;-66
2023/09/05 07:07:15;;;;;;;3.95;2.30;;;19.30;67.10;;;;;;2513019;54;20932;-65
2023/09/05 07:09:41;;;;;;;6.28;2.72;;;19.30;67.10;;;;;;2513320;55;20972;-66
2023/09/05 07:12:08;;;;;;;4.47;2.45;;;19.40;67.30;;;;;;2503421;55;20964;-67
2023/09/05 07:14:35;;;;;;;4.15;2.72;;;19.50;67.50;;;;;;2511490;55;20928;-66
2023/09/05 07:17:01;;;;;;;4.37;3.05;;;19.60;67.70;;;;;;2281223;55;20967;-65
2023/09/05 07:19:29;;;;;;;6.82;3.53;;;19.70;67.80;;;;;;2282525;55;20951;-65
2023/09/05 07:21:56;;;;;;;6.53;3.17;;;19.80;68.00;;;;;;2512589;55;21492;-65
2023/09/05 07:24:22;;;;;;;4.93;2.60;;;19.90;68.10;;;;;;2277201;55;21036;-67
2023/09/05 07:26:48;;;;;;;5.87;2.75;;;20.00;68.20;;;;;;2512091;55;21552;-68
2023/09/05 07:29:15;;;;;;;4.72;2.97;;;20.10;68.20;;;;;;2278248;55;20960;-69
2023/09/05 07:31:41;;;;;;;5.70;2.55;;;20.20;68.30;;;;;;2279008;55;21500;-67
2023/09/05 07:34:12;;;;;;;4.45;2.70;;;20.30;68.30;;;;;;2513465;55;21000;-65
2023/09/05 07:36:40;;;;;;;3.60;2.50;;;20.40;68.30;;;;;;2280395;55;20943;-68
2023/09/05 07:39:06;;;;;;;3.92;2.17;;;20.50;68.30;;;;;;2280877;55;20993;-67
2023/09/05 07:41:33;;;;;;;3.95;2.35;;;20.60;68.20;;;;;;2513494;55;20999;-69
2023/09/05 07:44:00;;;;;;;4.72;2.50;;;20.70;68.10;;;;;;2280554;55;21436;-69
2023/09/05 07:46:27;;;;;;;4.00;2.20;;;20.80;68.10;;;;;;2505218;55;21016;-68
2023/09/05 07:48:53;;;;;;;6.45;3.17;;;20.90;68.20;;;;;;2511283;55;20967;-70
2023/09/05 07:51:23;;;;;;;4.65;2.47;;;21.00;68.00;;;;;;2513144;55;21877;-66
2023/09/05 07:53:53;;;;;;;4.72;2.40;;;21.10;68.00;;;;;;2279600;55;20968;-67
2023/09/05 07:56:20;;;;;;;8.00;2.83;;;21.20;68.20;;;;;;2280537;55;20947;-65
2023/09/05 07:58:46;;;;;;;6.28;2.90;;;21.30;68.20;;;;;;2503468;55;20992;-66
2023/09/05 08:01:13;;;;;;;7.75;3.22;;;21.40;68.40;;;;;;2284417;55;21023;-66
2023/09/05 08:03:39;;;;;;;4.70;3.22;;;21.50;68.40;;;;;;2512743;55;21019;-65
2023/09/05 08:06:06;;;;;;;7.75;3.10;;;21.60;68.40;;;;;;2281252;55;21038;-66
2023/09/05 08:08:33;;;;;;;3.83;2.50;;;21.70;68.40;;;;;;2277873;55;21338;-65
2023/09/05 08:11:01;;;;;;;4.53;2.58;;;21.80;68.40;;;;;;2277743;55;25567;-68
2023/09/05 08:13:27;;;;;;;4.20;2.42;;;21.90;68.50;;;;;;2280381;55;21779;-68
2023/09/05 08:15:54;;;;;;;4.15;2.58;;;22.00;68.60;;;;;;2512632;55;20976;-66
2023/09/05 08:18:20;;;;;;;3.53;1.95;;;22.10;68.60;;;;;;2513277;55;20974;-67
2023/09/05 08:20:49;;;;;;;4.00;2.30;;;22.20;68.60;;;;;;2280327;55;21034;-67
2023/09/05 08:23:16;;;;;;;4.43;1.95;;;22.30;68.50;;;;;;2513464;55;20986;-66
2023/09/05 08:25:45;;;;;;;3.40;1.90;;;22.40;68.60;;;;;;2512922;55;21023;-65
2023/09/05 08:28:14;;;;;;;4.20;2.15;;;22.50;68.60;;;;;;2280714;55;20951;-65
2023/09/05 08:30:43;;;;;;;3.12;1.67;;;22.60;68.50;;;;;;2512885;55;21046;-66
2023/09/05 08:33:09;;;;;;;4.75;2.05;;;22.70;68.40;;;;;;2280359;55;21039;-67
2023/09/05 08:35:37;;;;;;;2.90;1.67;;;22.80;68.40;;;;;;2280522;55;20963;-67
2023/09/05 08:38:05;;;;;;;2.80;1.70;;;22.90;68.30;;;;;;2510768;55;21392;-67
2023/09/05 08:40:39;;;;;;;2.83;1.60;;;23.00;68.20;;;;;;2270032;55;21071;-66
2023/09/05 08:43:05;;;;;;;3.05;1.60;;;23.10;68.20;;;;;;2502860;55;20947;-66
2023/09/05 08:45:32;;;;;;;4.40;1.62;;;23.20;68.00;;;;;;2512235;55;20975;-66
2023/09/05 08:47:58;;;;;;;3.05;1.65;;;23.30;67.90;;;;;;2512228;55;20940;-68
2023/09/05 08:50:26;;;;;;;3.40;1.52;;;23.40;67.80;;;;;;2279796;55;20971;-66
2023/09/05 08:52:53;;;;;;;3.20;1.80;;;23.50;68.00;;;;;;2511915;55;20967;-66
2023/09/05 08:55:20;;;;;;;2.97;1.60;;;23.60;67.90;;;;;;2279916;55;20979;-68
2023/09/05 08:57:47;;;;;;;3.03;1.77;;;23.70;67.90;;;;;;2273642;55;20976;-68
2023/09/05 09:00:17;;;;;;;2.85;1.45;;;23.80;67.90;;;;;;2512564;55;20944;-66
2023/09/05 09:02:43;;;;;;;3.05;1.60;;;23.80;67.60;;;;;;2513325;55;20963;-68
2023/09/05 09:05:09;;;;;;;3.00;1.80;;;23.90;67.50;;;;;;2278822;55;20960;-66
2023/09/05 09:07:35;;;;;;;4.70;1.95;;;24.00;67.40;;;;;;2280218;55;21848;-66
2023/09/05 09:10:19;;;;;;;4.10;2.20;;;24.10;67.30;;;;;;2277929;55;21020;-69
2023/09/05 09:12:45;;;;;;;5.55;2.20;;;24.20;66.60;;;;;;2511902;55;20983;-67
2023/09/05 09:15:14;;;;;;;3.55;1.90;;;24.40;67.30;;;;;;2503589;54;20937;-68
2023/09/05 09:17:41;;;;;;;3.85;2.08;;;24.40;66.80;;;;;;2280859;55;20976;-66
2023/09/05 09:20:12;;;;;;;3.40;1.85;;;24.50;67.00;;;;;;2512335;55;21495;-66
2023/09/05 09:22:39;;;;;;;3.00;1.70;;;24.60;67.00;;;;;;2512752;55;20967;-66
2023/09/05 09:25:14;;;;;;;3.53;1.60;;;24.70;66.90;;;;;;2280286;55;22006;-67
2023/09/05 09:27:42;;;;;;;2.90;1.52;;;24.90;66.60;;;;;;2280390;55;21428;-66
2023/09/05 09:30:09;;;;;;;3.37;1.62;;;25.00;66.80;;;;;;2513426;55;21047;-66
2023/09/05 09:32:38;;;;;;;3.17;1.80;;;25.00;66.50;;;;;;2281501;55;21533;-67
2023/09/05 09:35:06;;;;;;;4.15;1.95;;;25.10;66.10;;;;;;2513324;55;21090;-66
2023/09/05 09:37:33;;;;;;;3.50;1.80;;;25.20;66.30;;;;;;2513341;55;21035;-66
2023/09/05 09:40:02;;;;;;;3.83;2.28;;;25.30;66.20;;;;;;2279998;55;20983;-67
2023/09/05 09:42:29;;;;;;;3.37;1.95;;;25.40;66.10;;;;;;2280462;55;21002;-66
2023/09/05 09:44:55;;;;;;;3.80;2.00;;;25.50;66.10;;;;;;2513357;55;20960;-66
2023/09/05 09:47:23;;;;;;;3.37;1.67;;;25.60;66.20;;;;;;2513483;55;20952;-69
2023/09/05 09:49:50;;;;;;;4.97;2.22;;;25.70;66.30;;;;;;2512370;55;21079;-67
2023/09/05 09:52:19;;;;;;;3.00;1.70;;;25.80;66.10;;;;;;2513900;55;20955;-66
2023/09/05 09:54:46;;;;;;;2.97;1.83;;;25.80;65.90;;;;;;2280013;55;20975;-67
2023/09/05 09:57:20;;;;;;;2.78;1.60;;;26.00;66.00;;;;;;2508164;55;20959;-69
2023/09/05 09:59:54;;;;;;;3.67;1.73;;;26.00;65.10;;;;;;2511771;55;20955;-67
2023/09/05 10:02:20;;;;;;;3.05;1.70;;;26.10;65.40;;;;;;2512491;55;21780;-66
2023/09/05 10:04:47;;;;;;;3.12;1.80;;;26.20;65.30;;;;;;2510166;55;20983;-67
2023/09/05 10:07:16;;;;;;;5.80;2.03;;;26.30;65.10;;;;;;2280590;55;21496;-67
2023/09/05 10:09:44;;;;;;;3.12;1.60;;;26.40;64.70;;;;;;2511924;55;20972;-69
2023/09/05 10:12:10;;;;;;;3.25;1.90;;;26.50;64.30;;;;;;2280138;55;21855;-67
2023/09/05 10:14:38;;;;;;;3.30;1.83;;;26.50;64.10;;;;;;2281124;55;21725;-66
2023/09/05 10:17:04;;;;;;;2.95;1.60;;;26.60;63.90;;;;;;2512070;55;20959;-67
2023/09/05 10:19:32;;;;;;;3.30;1.52;;;26.70;63.90;;;;;;2513406;55;20983;-67
2023/09/05 10:21:58;;;;;;;3.90;1.60;;;26.70;64.00;;;;;;2276130;55;21517;-67
2023/09/05 10:24:25;;;;;;;3.65;1.70;;;26.80;63.60;;;;;;2505634;55;20944;-67
2023/09/05 10:26:52;;;;;;;3.45;1.73;;;26.90;63.60;;;;;;2279479;55;21534;-66
2023/09/05 10:32:51;;;;;;;3.25;1.70;;;27.00;63.30;;;;;;2274561;55;20963;-67
2023/09/05 10:35:19;;;;;;;2.78;1.50;;;27.20;62.60;;;;;;2280939;55;20947;-67
2023/09/05 10:38:07;;;;;;;2.70;1.30;;;27.20;62.90;;;;;;2276699;55;20959;-67
2023/09/05 10:40:38;;;;;;;2.97;1.35;;;27.30;61.50;;;;;;2513377;55;21026;-66
2023/09/05 10:43:05;;;;;;;3.15;1.48;;;27.30;61.90;;;;;;2512834;55;21436;-68
2023/09/05 10:45:33;;;;;;;2.42;1.30;;;27.40;62.10;;;;;;2280441;55;21491;-67
2023/09/05 10:48:15;;;;;;;2.97;1.42;;;27.40;61.90;;;;;;2280378;55;20979;-69
2023/09/05 10:51:10;;;;;;;2.92;1.40;;;27.50;61.50;;;;;;2283629;55;21018;-66
2023/09/05 10:53:44;;;;;;;2.80;1.50;;;27.50;60.60;;;;;;2512724;55;21015;-66
2023/09/05 10:56:36;;;;;;;3.00;1.70;;;27.60;60.80;;;;;;2513250;55;21074;-67
2023/09/05 10:59:03;;;;;;;3.08;1.62;;;27.70;60.20;;;;;;2513593;55;20947;-67
2023/09/05 11:01:54;;;;;;;2.42;1.33;;;27.70;61.60;;;;;;2280268;55;21884;-66
2023/09/05 11:04:24;;;;;;;3.12;1.60;;;27.80;60.50;;;;;;2513459;55;20960;-70
2023/09/05 11:07:03;;;;;;;2.78;1.40;;;27.80;61.70;;;;;;2505934;55;20984;-67
2023/09/05 11:09:54;;;;;;;2.83;1.58;;;27.90;61.20;;;;;;2510533;55;20975;-67
2023/09/05 11:12:25;;;;;;;2.70;1.40;;;28.00;60.00;;;;;;2512922;55;21555;-71
2023/09/05 11:14:52;;;;;;;2.62;1.35;;;28.10;61.10;;;;;;2280863;55;20987;-69
2023/09/05 11:17:22;;;;;;;2.60;1.30;;;28.10;60.80;;;;;;2277788;56;21039;-67
2023/09/05 11:19:49;;;;;;;4.12;1.50;;;28.20;60.30;;;;;;2479953;55;21425;-67
2023/09/05 11:22:18;;;;;;;3.00;1.60;;;28.30;60.60;;;;;;2280045;55;20968;-66
2023/09/05 11:25:00;;;;;;;3.00;1.35;;;28.30;60.10;;;;;;2280505;55;20939;-68
2023/09/05 11:27:28;;;;;;;3.05;1.70;;;28.40;59.50;;;;;;2513266;55;21019;-67
2023/09/05 11:29:57;;;;;;;2.97;1.55;;;28.50;60.00;;;;;;2513313;55;20932;-68
2023/09/05 11:32:35;;;;;;;2.97;1.48;;;28.60;59.80;;;;;;2497179;55;21071;-67
2023/09/05 11:35:03;;;;;;;3.65;1.77;;;28.60;58.40;;;;;;2280383;55;21006;-68
2023/09/05 11:37:30;;;;;;;3.12;1.62;;;28.70;59.20;;;;;;2280712;55;20954;-67
2023/09/05 11:40:07;;;;;;;2.85;1.35;;;28.70;59.20;;;;;;2513173;55;20974;-67
2023/09/05 11:42:33;;;;;;;4.05;1.30;;;28.80;59.20;;;;;;2512965;55;20952;-67
2023/09/05 11:45:00;;;;;;;3.92;1.50;;;28.90;59.10;;;;;;2278229;55;20979;-65
2023/09/05 11:47:27;;;;;;;3.45;1.20;;;28.90;59.00;;;;;;2507956;55;20939;-67
2023/09/05 11:49:53;;;;;;;3.12;1.58;;;28.90;58.80;;;;;;2513710;55;20943;-69
2023/09/05 11:52:20;;;;;;;2.30;1.10;;;29.00;58.90;;;;;;2280785;55;21015;-71
2023/09/05 11:54:48;;;;;;;3.12;1.50;;;29.10;58.60;;;;;;2513011;55;21061;-67
2023/09/05 11:57:18;;;;;;;2.37;1.20;;;29.10;58.50;;;;;;2512352;54;21716;-68
2023/09/05 11:59:45;;;;;;;3.60;1.87;;;29.20;58.60;;;;;;2280762;55;20999;-67
2023/09/05 12:02:15;;;;;;;2.00;0.90;;;29.30;58.40;;;;;;2280328;55;20947;-68
2023/09/05 12:04:42;;;;;;;2.95;1.40;;;29.30;58.50;;;;;;2512592;55;21055;-67
2023/09/05 12:07:09;;;;;;;2.10;1.10;;;29.40;58.20;;;;;;2512929;55;21341;-66
2023/09/05 12:09:41;;;;;;;2.95;1.20;;;29.50;57.80;;;;;;2512756;55;21023;-68
2023/09/05 12:12:18;;;;;;;2.60;1.10;;;29.50;57.50;;;;;;2502153;55;20985;-70
2023/09/05 12:14:59;;;;;;;2.42;1.12;;;29.60;56.80;;;;;;2273453;56;21091;-68
2023/09/05 12:17:26;;;;;;;4.87;1.20;;;29.60;56.60;;;;;;2280816;55;20955;-68
2023/09/05 12:19:53;;;;;;;2.53;1.10;;;29.70;57.50;;;;;;2280224;55;22114;-67
2023/09/05 12:22:28;;;;;;;2.58;1.20;;;29.70;57.20;;;;;;2280676;55;20982;-68
2023/09/05 12:25:16;;;;;;;2.53;1.20;;;29.80;56.60;;;;;;2279980;55;21871;-68
2023/09/05 12:27:44;;;;;;;2.58;1.12;;;29.90;56.10;;;;;;2277634;55;20974;-66
2023/09/05 12:30:32;;;;;;;2.33;1.25;;;29.90;57.20;;;;;;2512490;55;20959;-68
2023/09/05 12:33:02;;;;;;;2.28;0.90;;;29.90;56.40;;;;;;2283736;55;21054;-68
2023/09/05 12:35:31;;;;;;;2.37;1.20;;;30.00;56.90;;;;;;2502033;55;21026;-68
2023/09/05 12:38:01;;;;;;;2.70;1.17;;;30.00;57.00;;;;;;2283542;55;21015;-67
2023/09/05 12:40:27;;;;;;;2.45;1.05;;;30.10;56.90;;;;;;2272203;55;20979;-67
2023/09/05 12:42:54;;;;;;;2.10;0.93;;;30.10;57.00;;;;;;2513457;55;21492;-69
2023/09/05 12:45:20;;;;;;;2.80;1.40;;;30.20;56.70;;;;;;2280505;55;21011;-69
2023/09/05 12:47:51;;;;;;;2.35;1.02;;;30.20;56.50;;;;;;2512674;55;20971;-68
2023/09/05 12:50:32;;;;;;;4.32;1.37;;;30.30;56.50;;;;;;2280961;55;21817;-70
2023/09/05 12:53:00;;;;;;;2.58;1.10;;;30.40;56.10;;;;;;2280606;55;21047;-67
2023/09/05 12:55:27;;;;;;;3.87;1.15;;;30.40;56.50;;;;;;2280377;55;20983;-68
2023/09/05 12:57:54;;;;;;;2.25;1.10;;;30.50;56.20;;;;;;2280510;55;21023;-67
2023/09/05 13:00:22;;;;;;;2.42;1.33;;;30.50;56.30;;;;;;2280145;55;20979;-68
2023/09/05 13:02:49;;;;;;;2.28;0.95;;;30.60;56.30;;;;;;2508116;55;21669;-69